sensor_id;sensor_type;location;lat;lon;timestamp;pressure;altitude;pressure_sealevel;temperature;humidity
21863;BME280;11096;51.338;12.524;2022-12-07T00:03:35;99998.63;;;1.34;nan
21863;BME280;11096;51.338;12.524;2022-12-07T00:06:02;99993.09;;;1.21;nan
21863;BME280;11096;51.338;12.524;2022-12-07T00:08:28;99997.28;;;1.24;nan
21863;BME280;11096;51.338;12.524;2022-12-07T00:10:53;100000.56;;;1.27;nan
21863;BME280;11096;51.338;12.524;2022-12-07T00:13:19;99995.50;;;1.26;nan
21863;BME280;11096;51.338;12.524;2022-12-07T00:15:44;99996.50;;;1.20;nan
21863;BME280;11096;51.338;12.524;2022-12-07T00:18:10;99993.91;;;1.22;nan
21863;BME280;11096;51.338;12.524;2022-12-07T00:20:35;99991.25;;;1.25;nan
21863;BME280;11096;51.338;12.524;2022-12-07T00:23:01;99983.72;;;1.20;nan
21863;BME280;11096;51.338;12.524;2022-12-07T00:25:26;99984.41;;;1.25;nan
21863;BME280;11096;51.338;12.524;2022-12-07T00:27:53;99982.63;;;1.27;nan
21863;BME280;11096;51.338;12.524;2022-12-07T00:30:20;99980.03;;;1.29;nan
21863;BME280;11096;51.338;12.524;2022-12-07T00:32:46;99969.00;;;1.27;nan
21863;BME280;11096;51.338;12.524;2022-12-07T00:35:11;99973.44;;;1.22;nan
21863;BME280;11096;51.338;12.524;2022-12-07T00:37:37;99974.50;;;1.16;nan
21863;BME280;11096;51.338;12.524;2022-12-07T00:40:02;99975.59;;;1.07;nan
21863;BME280;11096;51.338;12.524;2022-12-07T00:42:28;99973.94;;;1.06;nan
21863;BME280;11096;51.338;12.524;2022-12-07T00:44:53;99968.88;;;1.05;nan
21863;BME280;11096;51.338;12.524;2022-12-07T00:47:18;99965.63;;;1.00;nan
21863;BME280;11096;51.338;12.524;2022-12-07T00:49:44;99954.50;;;1.01;nan
21863;BME280;11096;51.338;12.524;2022-12-07T00:52:09;99965.53;;;1.03;nan
21863;BME280;11096;51.338;12.524;2022-12-07T00:54:34;99952.72;;;1.03;nan
21863;BME280;11096;51.338;12.524;2022-12-07T00:57:00;99963.09;;;0.98;nan
21863;BME280;11096;51.338;12.524;2022-12-07T00:59:25;99956.28;;;0.99;nan
21863;BME280;11096;51.338;12.524;2022-12-07T01:01:50;99963.22;;;0.95;nan
21863;BME280;11096;51.338;12.524;2022-12-07T01:04:16;99961.72;;;0.88;nan
21863;BME280;11096;51.338;12.524;2022-12-07T01:06:41;99963.03;;;0.75;nan
21863;BME280;11096;51.338;12.524;2022-12-07T01:09:07;99961.44;;;0.71;nan
21863;BME280;11096;51.338;12.524;2022-12-07T01:11:32;99955.88;;;0.58;nan
21863;BME280;11096;51.338;12.524;2022-12-07T01:13:59;99953.44;;;0.53;nan
21863;BME280;11096;51.338;12.524;2022-12-07T01:16:27;99952.84;;;0.45;nan
21863;BME280;11096;51.338;12.524;2022-12-07T01:18:55;99954.47;;;0.48;nan
21863;BME280;11096;51.338;12.524;2022-12-07T01:23:48;99960.69;;;0.39;nan
21863;BME280;11096;51.338;12.524;2022-12-07T01:26:16;99948.06;;;0.34;nan
21863;BME280;11096;51.338;12.524;2022-12-07T01:28:42;99944.63;;;0.35;nan
21863;BME280;11096;51.338;12.524;2022-12-07T01:31:19;99941.31;;;0.32;nan
21863;BME280;11096;51.338;12.524;2022-12-07T01:33:47;99946.38;;;0.33;nan
21863;BME280;11096;51.338;12.524;2022-12-07T01:38:39;99944.91;;;0.26;nan
21863;BME280;11096;51.338;12.524;2022-12-07T01:41:04;99937.63;;;0.12;nan
21863;BME280;11096;51.338;12.524;2022-12-07T01:43:32;99938.72;;;0.05;nan
21863;BME280;11096;51.338;12.524;2022-12-07T01:45:58;99937.91;;;0.03;nan
21863;BME280;11096;51.338;12.524;2022-12-07T01:48:28;99938.06;;;-0.03;nan
21863;BME280;11096;51.338;12.524;2022-12-07T01:51:01;99932.50;;;-0.17;nan
21863;BME280;11096;51.338;12.524;2022-12-07T01:53:29;99928.56;;;-0.28;nan
21863;BME280;11096;51.338;12.524;2022-12-07T01:55:56;99924.47;;;-0.33;nan
21863;BME280;11096;51.338;12.524;2022-12-07T01:58:24;99931.94;;;-0.27;nan
21863;BME280;11096;51.338;12.524;2022-12-07T02:00:50;99925.19;;;-0.30;nan
21863;BME280;11096;51.338;12.524;2022-12-07T02:05:43;99934.78;;;-0.38;nan
21863;BME280;11096;51.338;12.524;2022-12-07T02:08:11;99925.63;;;-0.45;nan
21863;BME280;11096;51.338;12.524;2022-12-07T02:10:37;99918.94;;;-0.49;nan
21863;BME280;11096;51.338;12.524;2022-12-07T02:13:07;99923.03;;;-0.44;nan
21863;BME280;11096;51.338;12.524;2022-12-07T02:18:58;99914.81;;;-0.55;nan
21863;BME280;11096;51.338;12.524;2022-12-07T02:24:19;99904.69;;;-0.56;nan
21863;BME280;11096;51.338;12.524;2022-12-07T02:29:42;99907.38;;;-0.62;nan
21863;BME280;11096;51.338;12.524;2022-12-07T02:32:25;99898.97;;;-0.66;nan
21863;BME280;11096;51.338;12.524;2022-12-07T02:35:05;99903.88;;;-0.58;nan
21863;BME280;11096;51.338;12.524;2022-12-07T02:40:35;99890.06;;;-0.51;nan
21863;BME280;11096;51.338;12.524;2022-12-07T02:45:36;99886.31;;;-0.39;nan
21863;BME280;11096;51.338;12.524;2022-12-07T02:48:05;99881.50;;;-0.49;nan
21863;BME280;11096;51.338;12.524;2022-12-07T02:50:32;99882.31;;;-0.48;nan
21863;BME280;11096;51.338;12.524;2022-12-07T02:52:57;99879.91;;;-0.54;nan
21863;BME280;11096;51.338;12.524;2022-12-07T02:55:29;99878.25;;;-0.55;nan
21863;BME280;11096;51.338;12.524;2022-12-07T02:58:24;99874.19;;;-0.62;nan
21863;BME280;11096;51.338;12.524;2022-12-07T03:03:39;99859.94;;;-0.70;nan
21863;BME280;11096;51.338;12.524;2022-12-07T03:06:28;99861.75;;;-0.73;nan
21863;BME280;11096;51.338;12.524;2022-12-07T03:09:09;99859.28;;;-0.76;nan
21863;BME280;11096;51.338;12.524;2022-12-07T03:11:55;99852.25;;;-0.68;nan
21863;BME280;11096;51.338;12.524;2022-12-07T03:14:30;99850.53;;;-0.68;nan
21863;BME280;11096;51.338;12.524;2022-12-07T03:17:02;99860.72;;;-0.66;nan
21863;BME280;11096;51.338;12.524;2022-12-07T03:19:31;99855.53;;;-0.65;nan
21863;BME280;11096;51.338;12.524;2022-12-07T03:22:02;99860.63;;;-0.65;nan
21863;BME280;11096;51.338;12.524;2022-12-07T03:24:32;99856.53;;;-0.69;nan
21863;BME280;11096;51.338;12.524;2022-12-07T03:27:27;99863.38;;;-0.71;nan
21863;BME280;11096;51.338;12.524;2022-12-07T03:30:00;99856.59;;;-0.72;nan
21863;BME280;11096;51.338;12.524;2022-12-07T03:35:22;99847.56;;;-0.83;nan
21863;BME280;11096;51.338;12.524;2022-12-07T03:41:00;99833.69;;;-0.73;nan
21863;BME280;11096;51.338;12.524;2022-12-07T03:43:30;99827.56;;;-0.68;nan
21863;BME280;11096;51.338;12.524;2022-12-07T03:48:35;99823.16;;;-0.62;nan
21863;BME280;11096;51.338;12.524;2022-12-07T03:53:36;99822.84;;;-0.52;nan
21863;BME280;11096;51.338;12.524;2022-12-07T03:56:04;99821.22;;;-0.54;nan
21863;BME280;11096;51.338;12.524;2022-12-07T03:58:31;99824.63;;;-0.54;nan
21863;BME280;11096;51.338;12.524;2022-12-07T04:00:57;99828.72;;;-0.48;nan
21863;BME280;11096;51.338;12.524;2022-12-07T04:03:23;99818.41;;;-0.45;nan
21863;BME280;11096;51.338;12.524;2022-12-07T04:05:48;99822.69;;;-0.46;nan
21863;BME280;11096;51.338;12.524;2022-12-07T04:08:14;99818.28;;;-0.40;nan
21863;BME280;11096;51.338;12.524;2022-12-07T04:10:39;99815.59;;;-0.36;nan
21863;BME280;11096;51.338;12.524;2022-12-07T04:13:05;99813.75;;;-0.31;nan
21863;BME280;11096;51.338;12.524;2022-12-07T04:15:30;99812.84;;;-0.30;nan
21863;BME280;11096;51.338;12.524;2022-12-07T04:17:55;99806.69;;;-0.23;nan
21863;BME280;11096;51.338;12.524;2022-12-07T04:20:21;99803.88;;;-0.15;nan
21863;BME280;11096;51.338;12.524;2022-12-07T04:22:47;99797.25;;;-0.20;nan
21863;BME280;11096;51.338;12.524;2022-12-07T04:25:12;99793.78;;;-0.18;nan
21863;BME280;11096;51.338;12.524;2022-12-07T04:27:37;99797.69;;;-0.06;nan
21863;BME280;11096;51.338;12.524;2022-12-07T04:30:03;99794.31;;;-0.08;nan
21863;BME280;11096;51.338;12.524;2022-12-07T04:32:29;99792.66;;;-0.09;nan
21863;BME280;11096;51.338;12.524;2022-12-07T04:34:54;99790.06;;;-0.08;nan
21863;BME280;11096;51.338;12.524;2022-12-07T04:37:20;99786.78;;;-0.11;nan
21863;BME280;11096;51.338;12.524;2022-12-07T04:39:45;99784.25;;;-0.13;nan
21863;BME280;11096;51.338;12.524;2022-12-07T04:42:11;99778.28;;;-0.12;nan
21863;BME280;11096;51.338;12.524;2022-12-07T04:44:38;99785.19;;;-0.15;nan
21863;BME280;11096;51.338;12.524;2022-12-07T04:47:03;99784.22;;;-0.11;nan
21863;BME280;11096;51.338;12.524;2022-12-07T04:49:29;99784.91;;;-0.06;nan
21863;BME280;11096;51.338;12.524;2022-12-07T04:51:54;99785.63;;;-0.03;nan
21863;BME280;11096;51.338;12.524;2022-12-07T04:54:20;99783.97;;;-0.04;nan
21863;BME280;11096;51.338;12.524;2022-12-07T04:56:45;99776.06;;;0.04;nan
21863;BME280;11096;51.338;12.524;2022-12-07T04:59:11;99765.16;;;-0.01;nan
21863;BME280;11096;51.338;12.524;2022-12-07T05:01:37;99770.31;;;-0.03;nan
21863;BME280;11096;51.338;12.524;2022-12-07T05:04:03;99767.84;;;-0.06;nan
21863;BME280;11096;51.338;12.524;2022-12-07T05:06:28;99762.75;;;-0.06;nan
21863;BME280;11096;51.338;12.524;2022-12-07T05:08:54;99758.53;;;-0.07;nan
21863;BME280;11096;51.338;12.524;2022-12-07T05:11:19;99764.47;;;-0.06;nan
21863;BME280;11096;51.338;12.524;2022-12-07T05:14:15;99758.44;;;-0.04;nan
21863;BME280;11096;51.338;12.524;2022-12-07T05:16:41;99753.28;;;-0.02;nan
21863;BME280;11096;51.338;12.524;2022-12-07T05:19:07;99760.06;;;-0.01;nan
21863;BME280;11096;51.338;12.524;2022-12-07T05:21:32;99755.72;;;0.01;nan
21863;BME280;11096;51.338;12.524;2022-12-07T05:23:58;99764.13;;;0.05;nan
21863;BME280;11096;51.338;12.524;2022-12-07T05:26:24;99758.00;;;0.10;nan
21863;BME280;11096;51.338;12.524;2022-12-07T05:28:51;99761.94;;;0.20;nan
21863;BME280;11096;51.338;12.524;2022-12-07T05:31:16;99751.41;;;0.30;nan
21863;BME280;11096;51.338;12.524;2022-12-07T05:33:42;99756.44;;;0.31;nan
21863;BME280;11096;51.338;12.524;2022-12-07T05:36:07;99755.25;;;0.41;nan
21863;BME280;11096;51.338;12.524;2022-12-07T05:38:33;99752.56;;;0.46;nan
21863;BME280;11096;51.338;12.524;2022-12-07T05:41:05;99750.06;;;0.45;nan
21863;BME280;11096;51.338;12.524;2022-12-07T05:43:32;99754.25;;;0.47;nan
21863;BME280;11096;51.338;12.524;2022-12-07T05:45:58;99750.00;;;0.46;nan
21863;BME280;11096;51.338;12.524;2022-12-07T05:48:24;99744.72;;;0.51;nan
21863;BME280;11096;51.338;12.524;2022-12-07T05:50:50;99746.41;;;0.52;nan
21863;BME280;11096;51.338;12.524;2022-12-07T05:53:16;99747.03;;;0.58;nan
21863;BME280;11096;51.338;12.524;2022-12-07T05:55:43;99746.31;;;0.55;nan
21863;BME280;11096;51.338;12.524;2022-12-07T05:58:08;99742.06;;;0.54;nan
21863;BME280;11096;51.338;12.524;2022-12-07T06:00:54;99741.91;;;0.58;nan
21863;BME280;11096;51.338;12.524;2022-12-07T06:03:20;99749.53;;;0.60;nan
21863;BME280;11096;51.338;12.524;2022-12-07T06:05:45;99739.34;;;0.58;nan
21863;BME280;11096;51.338;12.524;2022-12-07T06:08:10;99742.75;;;0.59;nan
21863;BME280;11096;51.338;12.524;2022-12-07T06:10:36;99739.25;;;0.61;nan
21863;BME280;11096;51.338;12.524;2022-12-07T06:13:01;99745.13;;;0.63;nan
21863;BME280;11096;51.338;12.524;2022-12-07T06:15:26;99736.59;;;0.64;nan
21863;BME280;11096;51.338;12.524;2022-12-07T06:17:52;99735.66;;;0.67;nan
21863;BME280;11096;51.338;12.524;2022-12-07T06:20:17;99737.28;;;0.70;nan
21863;BME280;11096;51.338;12.524;2022-12-07T06:22:43;99730.47;;;0.69;nan
21863;BME280;11096;51.338;12.524;2022-12-07T06:25:08;99744.03;;;0.71;nan
21863;BME280;11096;51.338;12.524;2022-12-07T06:27:35;99744.00;;;0.72;nan
21863;BME280;11096;51.338;12.524;2022-12-07T06:30:00;99743.16;;;0.72;nan
21863;BME280;11096;51.338;12.524;2022-12-07T06:32:32;99740.53;;;0.73;nan
21863;BME280;11096;51.338;12.524;2022-12-07T06:34:57;99738.88;;;0.72;nan
21863;BME280;11096;51.338;12.524;2022-12-07T06:37:22;99740.50;;;0.75;nan
21863;BME280;11096;51.338;12.524;2022-12-07T06:39:48;99740.53;;;0.73;nan
21863;BME280;11096;51.338;12.524;2022-12-07T06:42:13;99744.03;;;0.71;nan
21863;BME280;11096;51.338;12.524;2022-12-07T06:44:38;99739.94;;;0.67;nan
21863;BME280;11096;51.338;12.524;2022-12-07T06:47:04;99735.97;;;0.58;nan
21863;BME280;11096;51.338;12.524;2022-12-07T06:49:29;99744.56;;;0.55;nan
21863;BME280;11096;51.338;12.524;2022-12-07T06:51:55;99747.97;;;0.56;nan
21863;BME280;11096;51.338;12.524;2022-12-07T06:54:20;99752.25;;;0.55;nan
21863;BME280;11096;51.338;12.524;2022-12-07T06:56:45;99751.53;;;0.52;nan
21863;BME280;11096;51.338;12.524;2022-12-07T06:59:11;99756.53;;;0.55;nan
21863;BME280;11096;51.338;12.524;2022-12-07T07:01:36;99756.41;;;0.58;nan
21863;BME280;11096;51.338;12.524;2022-12-07T07:04:02;99758.81;;;0.62;nan
21863;BME280;11096;51.338;12.524;2022-12-07T07:06:27;99756.16;;;0.66;nan
21863;BME280;11096;51.338;12.524;2022-12-07T07:08:52;99755.16;;;0.70;nan
21863;BME280;11096;51.338;12.524;2022-12-07T07:11:18;99755.84;;;0.75;nan
21863;BME280;11096;51.338;12.524;2022-12-07T07:13:44;99754.94;;;0.76;nan
21863;BME280;11096;51.338;12.524;2022-12-07T07:16:10;99753.22;;;0.76;nan
21863;BME280;11096;51.338;12.524;2022-12-07T07:18:35;99759.13;;;0.78;nan
21863;BME280;11096;51.338;12.524;2022-12-07T07:21:01;99762.34;;;0.83;nan
21863;BME280;11096;51.338;12.524;2022-12-07T07:23:26;99763.13;;;0.85;nan
21863;BME280;11096;51.338;12.524;2022-12-07T07:25:52;99766.53;;;0.86;nan
21863;BME280;11096;51.338;12.524;2022-12-07T07:28:18;99765.69;;;0.85;nan
21863;BME280;11096;51.338;12.524;2022-12-07T07:30:43;99767.25;;;0.90;nan
21863;BME280;11096;51.338;12.524;2022-12-07T07:33:09;99769.78;;;0.91;nan
21863;BME280;11096;51.338;12.524;2022-12-07T07:35:35;99773.94;;;0.94;nan
21863;BME280;11096;51.338;12.524;2022-12-07T07:38:01;99771.47;;;0.91;nan
21863;BME280;11096;51.338;12.524;2022-12-07T07:40:27;99774.78;;;0.94;nan
21863;BME280;11096;51.338;12.524;2022-12-07T07:42:56;99777.34;;;0.94;nan
21863;BME280;11096;51.338;12.524;2022-12-07T07:45:23;99778.84;;;1.00;nan
21863;BME280;11096;51.338;12.524;2022-12-07T07:47:49;99774.56;;;1.00;nan
21863;BME280;11096;51.338;12.524;2022-12-07T07:50:15;99770.88;;;1.07;nan
21863;BME280;11096;51.338;12.524;2022-12-07T07:52:41;99779.19;;;1.14;nan
21863;BME280;11096;51.338;12.524;2022-12-07T07:55:07;99770.88;;;1.07;nan
21863;BME280;11096;51.338;12.524;2022-12-07T07:57:37;99767.34;;;1.12;nan
21863;BME280;11096;51.338;12.524;2022-12-07T08:00:05;99768.94;;;1.14;nan
21863;BME280;11096;51.338;12.524;2022-12-07T08:02:31;99768.00;;;1.17;nan
21863;BME280;11096;51.338;12.524;2022-12-07T08:04:57;99779.84;;;1.19;nan
21863;BME280;11096;51.338;12.524;2022-12-07T08:07:22;99779.91;;;1.18;nan
21863;BME280;11096;51.338;12.524;2022-12-07T08:09:48;99774.06;;;1.14;nan
21863;BME280;11096;51.338;12.524;2022-12-07T08:12:13;99777.34;;;1.18;nan
21863;BME280;11096;51.338;12.524;2022-12-07T08:14:39;99779.69;;;1.24;nan
21863;BME280;11096;51.338;12.524;2022-12-07T08:17:04;99776.88;;;1.30;nan
21863;BME280;11096;51.338;12.524;2022-12-07T08:19:29;99781.91;;;1.33;nan
21863;BME280;11096;51.338;12.524;2022-12-07T08:21:55;99781.41;;;1.23;nan
21863;BME280;11096;51.338;12.524;2022-12-07T08:24:21;99783.06;;;1.24;nan
21863;BME280;11096;51.338;12.524;2022-12-07T08:26:47;99780.69;;;1.20;nan
21863;BME280;11096;51.338;12.524;2022-12-07T08:29:12;99778.00;;;1.23;nan
21863;BME280;11096;51.338;12.524;2022-12-07T08:31:37;99777.97;;;1.24;nan
21863;BME280;11096;51.338;12.524;2022-12-07T08:34:03;99777.00;;;1.27;nan
21863;BME280;11096;51.338;12.524;2022-12-07T08:36:28;99773.34;;;1.34;nan
21863;BME280;11096;51.338;12.524;2022-12-07T08:38:53;99779.78;;;1.44;nan
21863;BME280;11096;51.338;12.524;2022-12-07T08:41:19;99777.97;;;1.48;nan
21863;BME280;11096;51.338;12.524;2022-12-07T08:43:44;99779.44;;;1.54;nan
21863;BME280;11096;51.338;12.524;2022-12-07T08:46:40;99774.06;;;1.60;nan
21863;BME280;11096;51.338;12.524;2022-12-07T08:49:17;99770.41;;;1.67;nan
21863;BME280;11096;51.338;12.524;2022-12-07T08:51:44;99773.50;;;1.75;nan
21863;BME280;11096;51.338;12.524;2022-12-07T08:54:13;99775.03;;;1.79;nan
21863;BME280;11096;51.338;12.524;2022-12-07T08:56:39;99774.88;;;1.84;nan
21863;BME280;11096;51.338;12.524;2022-12-07T08:59:06;99775.66;;;1.86;nan
21863;BME280;11096;51.338;12.524;2022-12-07T09:01:32;99780.16;;;1.79;nan
21863;BME280;11096;51.338;12.524;2022-12-07T09:03:58;99780.78;;;1.86;nan
21863;BME280;11096;51.338;12.524;2022-12-07T09:06:23;99784.25;;;1.85;nan
21863;BME280;11096;51.338;12.524;2022-12-07T09:08:52;99785.69;;;1.92;nan
21863;BME280;11096;51.338;12.524;2022-12-07T09:11:21;99777.78;;;1.97;nan
21863;BME280;11096;51.338;12.524;2022-12-07T09:13:47;99786.13;;;2.02;nan
21863;BME280;11096;51.338;12.524;2022-12-07T09:16:12;99787.81;;;2.03;nan
21863;BME280;11096;51.338;12.524;2022-12-07T09:18:37;99785.91;;;2.08;nan
21863;BME280;11096;51.338;12.524;2022-12-07T09:21:03;99796.03;;;2.11;nan
21863;BME280;11096;51.338;12.524;2022-12-07T09:23:29;99795.88;;;2.14;nan
21863;BME280;11096;51.338;12.524;2022-12-07T09:25:54;99794.09;;;2.16;nan
21863;BME280;11096;51.338;12.524;2022-12-07T09:28:20;99793.16;;;2.19;nan
21863;BME280;11096;51.338;12.524;2022-12-07T09:30:48;99790.41;;;2.23;nan
21863;BME280;11096;51.338;12.524;2022-12-07T09:33:14;99792.84;;;2.26;nan
21863;BME280;11096;51.338;12.524;2022-12-07T09:35:47;99789.53;;;2.24;nan
21863;BME280;11096;51.338;12.524;2022-12-07T09:38:13;99789.44;;;2.26;nan
21863;BME280;11096;51.338;12.524;2022-12-07T09:40:39;99783.31;;;2.30;nan
21863;BME280;11096;51.338;12.524;2022-12-07T09:43:05;99779.66;;;2.35;nan
21863;BME280;11096;51.338;12.524;2022-12-07T09:45:37;99783.03;;;2.36;nan
21863;BME280;11096;51.338;12.524;2022-12-07T09:48:04;99778.88;;;2.33;nan
21863;BME280;11096;51.338;12.524;2022-12-07T09:50:30;99775.44;;;2.34;nan
21863;BME280;11096;51.338;12.524;2022-12-07T09:53:15;99778.19;;;2.30;nan
21863;BME280;11096;51.338;12.524;2022-12-07T09:55:42;99779.06;;;2.29;nan
21863;BME280;11096;51.338;12.524;2022-12-07T09:58:28;99767.97;;;2.28;nan
21863;BME280;11096;51.338;12.524;2022-12-07T10:01:00;99774.88;;;2.26;nan
21863;BME280;11096;51.338;12.524;2022-12-07T10:03:29;99774.97;;;2.25;nan
21863;BME280;11096;51.338;12.524;2022-12-07T10:05:55;99772.59;;;2.20;nan
21863;BME280;11096;51.338;12.524;2022-12-07T10:08:22;99771.22;;;2.11;nan
21863;BME280;11096;51.338;12.524;2022-12-07T10:10:53;99767.81;;;2.11;nan
21863;BME280;11096;51.338;12.524;2022-12-07T10:13:34;99763.84;;;2.04;nan
21863;BME280;11096;51.338;12.524;2022-12-07T10:16:00;99767.94;;;2.08;nan
21863;BME280;11096;51.338;12.524;2022-12-07T10:23:33;99771.81;;;2.18;nan
21863;BME280;11096;51.338;12.524;2022-12-07T10:25:59;99754.81;;;2.15;nan
21863;BME280;11096;51.338;12.524;2022-12-07T10:28:33;99759.81;;;2.19;nan
21863;BME280;11096;51.338;12.524;2022-12-07T10:31:02;99757.16;;;2.22;nan
21863;BME280;11096;51.338;12.524;2022-12-07T10:36:00;99758.34;;;2.33;nan
21863;BME280;11096;51.338;12.524;2022-12-07T10:38:44;99762.47;;;2.38;nan
21863;BME280;11096;51.338;12.524;2022-12-07T10:41:10;99746.94;;;2.41;nan
21863;BME280;11096;51.338;12.524;2022-12-07T10:43:36;99751.72;;;2.50;nan
21863;BME280;11096;51.338;12.524;2022-12-07T10:51:34;99750.22;;;2.65;nan
21863;BME280;11096;51.338;12.524;2022-12-07T10:54:12;99743.16;;;2.70;nan
21863;BME280;11096;51.338;12.524;2022-12-07T11:00:24;99739.38;;;2.78;nan
21863;BME280;11096;51.338;12.524;2022-12-07T11:08:12;99725.59;;;2.81;nan
21863;BME280;11096;51.338;12.524;2022-12-07T11:10:55;99720.44;;;2.81;nan
21863;BME280;11096;51.338;12.524;2022-12-07T11:21:57;99724.41;;;2.88;nan
21863;BME280;11096;51.338;12.524;2022-12-07T11:27:24;99725.16;;;2.90;nan
21863;BME280;11096;51.338;12.524;2022-12-07T11:30:08;99717.69;;;2.86;nan
21863;BME280;11096;51.338;12.524;2022-12-07T11:32:56;99713.09;;;2.73;nan
21863;BME280;11096;51.338;12.524;2022-12-07T11:37:59;99715.47;;;2.57;nan
21863;BME280;11096;51.338;12.524;2022-12-07T11:40:30;99714.84;;;2.52;nan
21863;BME280;11096;51.338;12.524;2022-12-07T11:43:15;99714.25;;;2.46;nan
21863;BME280;11096;51.338;12.524;2022-12-07T11:45:46;99719.53;;;2.43;nan
21863;BME280;11096;51.338;12.524;2022-12-07T11:51:18;99713.34;;;2.26;nan
21863;BME280;11096;51.338;12.524;2022-12-07T11:53:59;99719.22;;;2.30;nan
21863;BME280;11096;51.338;12.524;2022-12-07T11:56:28;99720.03;;;2.30;nan
21863;BME280;11096;51.338;12.524;2022-12-07T12:04:41;99724.50;;;2.46;nan
21863;BME280;11096;51.338;12.524;2022-12-07T12:07:16;99719.97;;;2.52;nan
21863;BME280;11096;51.338;12.524;2022-12-07T12:09:59;99718.94;;;2.56;nan
21863;BME280;11096;51.338;12.524;2022-12-07T12:15:33;99710.47;;;2.54;nan
21863;BME280;11096;51.338;12.524;2022-12-07T12:21:02;99704.00;;;2.66;nan
21863;BME280;11096;51.338;12.524;2022-12-07T12:23:37;99707.38;;;2.67;nan
21863;BME280;11096;51.338;12.524;2022-12-07T12:26:07;99704.81;;;2.67;nan
21863;BME280;11096;51.338;12.524;2022-12-07T12:28:41;99696.97;;;2.70;nan
21863;BME280;11096;51.338;12.524;2022-12-07T12:31:14;99697.56;;;2.76;nan
21863;BME280;11096;51.338;12.524;2022-12-07T12:33:53;99693.81;;;2.84;nan
21863;BME280;11096;51.338;12.524;2022-12-07T12:46:59;99695.84;;;2.96;nan
21863;BME280;11096;51.338;12.524;2022-12-07T12:51:52;99688.13;;;2.96;nan
21863;BME280;11096;51.338;12.524;2022-12-07T12:54:24;99687.38;;;2.94;nan
21863;BME280;11096;51.338;12.524;2022-12-07T12:57:23;99688.00;;;2.99;nan
21863;BME280;11096;51.338;12.524;2022-12-07T13:02:27;99681.31;;;2.95;nan
21863;BME280;11096;51.338;12.524;2022-12-07T13:05:18;99676.06;;;2.98;nan
21863;BME280;11096;51.338;12.524;2022-12-07T13:15:54;99676.13;;;2.96;nan
21863;BME280;11096;51.338;12.524;2022-12-07T13:29:20;99667.31;;;3.02;nan
21863;BME280;11096;51.338;12.524;2022-12-07T13:31:54;99663.16;;;2.99;nan
21863;BME280;11096;51.338;12.524;2022-12-07T13:34:40;99660.22;;;3.07;nan
21863;BME280;11096;51.338;12.524;2022-12-07T13:37:23;99655.09;;;3.07;nan
21863;BME280;11096;51.338;12.524;2022-12-07T13:42:29;99649.09;;;3.08;nan
21863;BME280;11096;51.338;12.524;2022-12-07T13:44:56;99657.59;;;3.09;nan
21863;BME280;11096;51.338;12.524;2022-12-07T13:47:44;99647.28;;;3.10;nan
21863;BME280;11096;51.338;12.524;2022-12-07T13:50:27;99657.66;;;3.07;nan
21863;BME280;11096;51.338;12.524;2022-12-07T13:52:58;99644.78;;;3.09;nan
21863;BME280;11096;51.338;12.524;2022-12-07T13:55:24;99646.41;;;3.10;nan
21863;BME280;11096;51.338;12.524;2022-12-07T13:57:52;99643.94;;;3.08;nan
21863;BME280;11096;51.338;12.524;2022-12-07T14:00:27;99653.44;;;3.06;nan
21863;BME280;11096;51.338;12.524;2022-12-07T14:03:04;99650.16;;;3.03;nan
21863;BME280;11096;51.338;12.524;2022-12-07T14:06:03;99658.78;;;3.01;nan
21863;BME280;11096;51.338;12.524;2022-12-07T14:08:29;99657.97;;;3.01;nan
21863;BME280;11096;51.338;12.524;2022-12-07T14:10:56;99663.16;;;2.99;nan
21863;BME280;11096;51.338;12.524;2022-12-07T14:15:57;99651.16;;;3.00;nan
21863;BME280;11096;51.338;12.524;2022-12-07T14:18:36;99646.31;;;2.94;nan
21863;BME280;11096;51.338;12.524;2022-12-07T14:23:34;99654.16;;;2.91;nan
21863;BME280;11096;51.338;12.524;2022-12-07T14:26:29;99657.75;;;2.87;nan
21863;BME280;11096;51.338;12.524;2022-12-07T14:31:46;99658.25;;;2.76;nan
21863;BME280;11096;51.338;12.524;2022-12-07T14:34:12;99658.34;;;2.73;nan
21863;BME280;11096;51.338;12.524;2022-12-07T14:36:37;99649.84;;;2.72;nan
21863;BME280;11096;51.338;12.524;2022-12-07T14:39:03;99662.94;;;2.66;nan
21863;BME280;11096;51.338;12.524;2022-12-07T14:41:28;99651.91;;;2.64;nan
21863;BME280;11096;51.338;12.524;2022-12-07T14:44:12;99651.19;;;2.61;nan
21863;BME280;11096;51.338;12.524;2022-12-07T14:46:38;99650.50;;;2.57;nan
21863;BME280;11096;51.338;12.524;2022-12-07T14:49:03;99652.44;;;2.52;nan
21863;BME280;11096;51.338;12.524;2022-12-07T14:51:28;99652.44;;;2.52;nan
21863;BME280;11096;51.338;12.524;2022-12-07T14:53:54;99660.19;;;2.50;nan
21863;BME280;11096;51.338;12.524;2022-12-07T14:56:19;99651.03;;;2.45;nan
21863;BME280;11096;51.338;12.524;2022-12-07T14:58:45;99656.31;;;2.42;nan
21863;BME280;11096;51.338;12.524;2022-12-07T15:01:13;99648.69;;;2.40;nan
21863;BME280;11096;51.338;12.524;2022-12-07T15:03:38;99651.38;;;2.37;nan
21863;BME280;11096;51.338;12.524;2022-12-07T15:06:05;99652.53;;;2.30;nan
21863;BME280;11096;51.338;12.524;2022-12-07T15:08:30;99640.41;;;2.33;nan
21863;BME280;11096;51.338;12.524;2022-12-07T15:10:56;99649.91;;;2.31;nan
21863;BME280;11096;51.338;12.524;2022-12-07T15:13:21;99653.38;;;2.30;nan
21863;BME280;11096;51.338;12.524;2022-12-07T15:16:09;99645.63;;;2.32;nan
21863;BME280;11096;51.338;12.524;2022-12-07T15:18:35;99646.69;;;2.26;nan
21863;BME280;11096;51.338;12.524;2022-12-07T15:21:00;99639.00;;;2.26;nan
21863;BME280;11096;51.338;12.524;2022-12-07T15:23:26;99646.50;;;2.31;nan
21863;BME280;11096;51.338;12.524;2022-12-07T15:25:51;99656.13;;;2.26;nan
21863;BME280;11096;51.338;12.524;2022-12-07T15:28:16;99651.97;;;2.23;nan
21863;BME280;11096;51.338;12.524;2022-12-07T15:30:43;99649.72;;;2.15;nan
21863;BME280;11096;51.338;12.524;2022-12-07T15:33:09;99657.47;;;2.14;nan
21863;BME280;11096;51.338;12.524;2022-12-07T15:35:43;99655.81;;;2.13;nan
21863;BME280;11096;51.338;12.524;2022-12-07T15:38:09;99661.78;;;2.13;nan
21863;BME280;11096;51.338;12.524;2022-12-07T15:40:34;99659.00;;;2.18;nan
21863;BME280;11096;51.338;12.524;2022-12-07T15:43:01;99661.56;;;2.18;nan